Time,TemperatureF,DewpointF,PressureIn,WindDirection,WindDirectionDegrees,WindSpeedMPH,WindSpeedGustMPH,Humidity,HourlyPrecipIn,Conditions,Clouds,dailyrainin,SoftwareType,DateUTC
2013-04-03 00:03:00,45.7,44.1,30.20,NW,304,0.0,0.0,94,0.00,,,0.00,meteohub,2013-04-03 07:03:00,
2013-04-03 00:08:00,45.5,44.2,30.20,NW,304,2.0,0.0,95,0.00,,,0.00,meteohub,2013-04-03 07:08:00,
2013-04-03 00:13:00,45.5,44.2,30.20,NW,304,2.0,4.0,95,0.00,,,0.00,meteohub,2013-04-03 07:13:00,
2013-04-03 00:18:00,45.3,44.2,30.20,NW,304,3.0,4.0,96,0.00,,,0.00,meteohub,2013-04-03 07:18:00,
2013-04-03 00:23:00,45.1,44.1,30.20,NW,304,3.0,4.0,96,0.00,,,0.00,meteohub,2013-04-03 07:23:00,
2013-04-03 00:28:00,45.1,44.1,30.20,NW,304,2.0,3.0,96,0.00,,,0.00,meteohub,2013-04-03 07:28:00,
2013-04-03 00:33:00,45.1,44.4,30.20,NW,304,3.0,3.0,97,0.00,,,0.00,meteohub,2013-04-03 07:33:00,
2013-04-03 00:38:00,45.3,44.6,30.20,NW,304,3.0,4.0,97,0.00,,,0.00,meteohub,2013-04-03 07:38:00,
2013-04-03 00:43:00,45.3,44.6,30.20,NW,304,0.0,4.0,97,0.00,,,0.00,meteohub,2013-04-03 07:43:00,
2013-04-03 00:48:00,45.5,44.8,30.20,NW,304,0.0,4.0,97,0.00,,,0.00,meteohub,2013-04-03 07:48:00,
2013-04-03 00:53:00,45.5,44.8,30.20,NW,304,0.0,4.0,97,0.00,,,0.00,meteohub,2013-04-03 07:53:00,
2013-04-03 00:58:00,45.5,44.4,30.20,NW,304,0.0,4.0,96,0.00,,,0.00,meteohub,2013-04-03 07:58:00,
2013-04-03 01:03:00,45.3,44.2,30.20,NW,304,0.0,3.0,96,0.00,,,0.00,meteohub,2013-04-03 08:03:00,
2013-04-03 01:08:00,45.1,44.1,30.20,NW,304,0.0,0.0,96,0.00,,,0.00,meteohub,2013-04-03 08:08:00,
2013-04-03 01:14:00,45.1,44.4,30.20,NW,304,0.0,0.0,97,0.00,,,0.00,meteohub,2013-04-03 08:14:00,
2013-04-03 01:19:00,45.1,44.4,30.20,NW,304,0.0,0.0,97,0.00,,,0.00,meteohub,2013-04-03 08:19:00,
2013-04-03 01:24:00,45.1,44.4,30.20,NW,304,0.0,0.0,97,0.00,,,0.00,meteohub,2013-04-03 08:24:00,
2013-04-03 01:29:00,45.1,44.4,30.20,NW,304,0.0,0.0,97,0.00,,,0.00,meteohub,2013-04-03 08:29:00,
2013-04-03 01:34:00,45.3,44.6,30.20,NW,304,0.0,0.0,97,0.00,,,0.00,meteohub,2013-04-03 08:34:00,
2013-04-03 01:39:00,45.5,44.8,30.23,WNW,282,3.0,0.0,97,0.00,,,0.00,meteohub,2013-04-03 08:39:00,
2013-04-03 01:44:00,45.7,45.0,30.23,WNW,282,0.0,4.0,97,0.00,,,0.00,meteohub,2013-04-03 08:44:00,
2013-04-03 01:49:00,45.9,45.1,30.23,WNW,284,4.0,4.0,97,0.00,,,0.00,meteohub,2013-04-03 08:49:00,
2013-04-03 01:54:00,46.0,45.3,30.20,NNW,334,4.0,5.0,97,0.00,,,0.00,meteohub,2013-04-03 08:54:00,
2013-04-03 01:59:00,46.0,45.3,30.20,NW,311,4.0,5.0,97,0.00,,,0.00,meteohub,2013-04-03 08:59:00,
2013-04-03 02:04:00,46.2,45.5,30.20,SSE,154,5.0,5.0,97,0.00,,,0.00,meteohub,2013-04-03 09:04:00,
2013-04-03 02:09:00,46.0,45.3,30.20,SSW,210,3.0,5.0,97,0.00,,,0.00,meteohub,2013-04-03 09:09:00,
2013-04-03 02:14:00,46.2,45.5,30.20,SSW,210,0.0,6.0,97,0.00,,,0.00,meteohub,2013-04-03 09:14:00,
2013-04-03 02:19:00,46.0,45.3,30.20,SSW,210,0.0,6.0,97,0.00,,,0.00,meteohub,2013-04-03 09:19:00,
2013-04-03 02:24:00,46.0,45.3,30.20,SSW,210,0.0,6.0,97,0.00,,,0.00,meteohub,2013-04-03 09:24:00,
2013-04-03 02:29:00,45.9,45.1,30.20,SSW,210,0.0,3.0,97,0.00,,,0.00,meteohub,2013-04-03 09:29:00,
2013-04-03 02:34:00,45.9,44.8,30.20,SSW,210,0.0,0.0,96,0.00,,,0.00,meteohub,2013-04-03 09:34:00,
2013-04-03 02:39:00,45.5,44.4,30.20,SSW,210,0.0,0.0,96,0.00,,,0.00,meteohub,2013-04-03 09:39:00,
2013-04-03 02:44:00,45.3,44.2,30.20,SSW,210,0.0,0.0,96,0.00,,,0.00,meteohub,2013-04-03 09:44:00,
2013-04-03 02:49:00,45.1,44.1,30.20,SSW,210,0.0,0.0,96,0.00,,,0.00,meteohub,2013-04-03 09:49:00,
2013-04-03 02:54:00,45.0,43.9,30.20,SSW,210,0.0,0.0,96,0.00,,,0.00,meteohub,2013-04-03 09:54:00,
2013-04-03 02:59:00,45.0,43.9,30.20,SSW,210,0.0,0.0,96,0.00,,,0.00,meteohub,2013-04-03 09:59:00,
2013-04-03 03:04:00,45.0,43.9,30.20,SSW,210,0.0,0.0,96,0.00,,,0.00,meteohub,2013-04-03 10:04:00,
2013-04-03 03:09:00,45.1,44.1,30.20,SSW,210,0.0,0.0,96,0.00,,,0.00,meteohub,2013-04-03 10:09:00,
2013-04-03 03:14:00,45.1,44.4,30.20,SSW,210,0.0,0.0,97,0.00,,,0.00,meteohub,2013-04-03 10:14:00,
2013-04-03 03:19:00,45.3,44.6,30.20,SSW,210,0.0,0.0,97,0.00,,,0.00,meteohub,2013-04-03 10:19:00,
2013-04-03 03:24:00,45.3,44.6,30.20,SSW,210,0.0,0.0,97,0.00,,,0.00,meteohub,2013-04-03 10:24:00,
2013-04-03 03:29:00,45.3,44.6,30.20,SSW,210,0.0,0.0,97,0.00,,,0.00,meteohub,2013-04-03 10:29:00,
2013-04-03 03:34:00,45.3,44.6,30.20,SSW,210,0.0,0.0,97,0.00,,,0.00,meteohub,2013-04-03 10:34:00,
2013-04-03 03:39:00,45.3,44.6,30.20,SSW,210,0.0,0.0,97,0.00,,,0.00,meteohub,2013-04-03 10:39:00,
2013-04-03 03:44:00,45.3,44.6,30.20,SSW,210,0.0,0.0,97,0.00,,,0.00,meteohub,2013-04-03 10:44:00,
2013-04-03 03:49:00,45.3,44.6,30.20,SSW,210,0.0,0.0,97,0.00,,,0.00,meteohub,2013-04-03 10:49:00,
2013-04-03 03:54:00,45.1,44.4,30.20,SSW,210,0.0,0.0,97,0.00,,,0.00,meteohub,2013-04-03 10:54:00,
2013-04-03 03:59:00,45.1,44.4,30.20,SSW,210,0.0,0.0,97,0.00,,,0.00,meteohub,2013-04-03 10:59:00,
2013-04-03 04:04:00,45.0,44.2,30.20,SSW,210,0.0,0.0,97,0.00,,,0.00,meteohub,2013-04-03 11:04:00,
2013-04-03 04:09:00,45.1,44.4,30.20,SSW,210,3.0,0.0,97,0.00,,,0.00,meteohub,2013-04-03 11:09:00,
2013-04-03 04:14:00,45.3,44.8,30.20,SSW,210,0.0,4.0,98,0.00,,,0.00,meteohub,2013-04-03 11:14:00,
2013-04-03 04:19:00,45.3,44.8,30.20,SSW,210,0.0,4.0,98,0.00,,,0.00,meteohub,2013-04-03 11:19:00,
2013-04-03 04:24:00,45.3,44.8,30.20,SSW,210,0.0,4.0,98,0.00,,,0.00,meteohub,2013-04-03 11:24:00,
2013-04-03 04:29:00,45.3,44.8,30.20,SSW,210,0.0,2.0,98,0.00,,,0.00,meteohub,2013-04-03 11:29:00,
2013-04-03 04:34:00,45.3,44.8,30.20,SSW,210,0.0,0.0,98,0.00,,,0.00,meteohub,2013-04-03 11:34:00,
2013-04-03 04:39:00,45.3,44.8,30.20,SSW,210,4.0,0.0,98,0.00,,,0.00,meteohub,2013-04-03 11:39:00,
2013-04-03 04:44:00,45.3,44.8,30.20,SSW,210,0.0,3.0,98,0.00,,,0.00,meteohub,2013-04-03 11:44:00,
2013-04-03 04:49:00,45.3,44.8,30.20,SSW,210,0.0,4.0,98,0.00,,,0.00,meteohub,2013-04-03 11:49:00,
2013-04-03 04:54:00,45.5,45.0,30.20,SSW,210,0.0,4.0,98,0.00,,,0.00,meteohub,2013-04-03 11:54:00,
2013-04-03 04:59:00,45.5,45.0,30.20,SSW,210,0.0,3.0,98,0.00,,,0.00,meteohub,2013-04-03 11:59:00,
2013-04-03 05:04:00,45.3,44.8,30.20,SSW,210,0.0,4.0,98,0.00,,,0.00,meteohub,2013-04-03 12:04:00,
2013-04-03 05:09:00,45.3,44.8,30.20,SSW,210,0.0,4.0,98,0.00,,,0.00,meteohub,2013-04-03 12:09:00,
2013-04-03 05:14:00,45.3,44.8,30.20,SSW,210,0.0,4.0,98,0.00,,,0.00,meteohub,2013-04-03 12:14:00,
2013-04-03 05:19:00,45.5,45.0,30.20,SSW,210,0.0,0.0,98,0.00,,,0.00,meteohub,2013-04-03 12:19:00,
2013-04-03 05:24:00,45.7,45.1,30.20,SSW,210,0.0,0.0,98,0.00,,,0.00,meteohub,2013-04-03 12:24:00,
2013-04-03 05:29:00,45.7,45.1,30.20,SSW,210,0.0,0.0,98,0.00,,,0.00,meteohub,2013-04-03 12:29:00,
2013-04-03 05:34:00,45.5,45.0,30.20,SSW,210,0.0,0.0,98,0.00,,,0.00,meteohub,2013-04-03 12:34:00,
2013-04-03 05:39:00,45.5,45.0,30.20,SSW,210,0.0,0.0,98,0.00,,,0.00,meteohub,2013-04-03 12:39:00,
2013-04-03 05:44:00,45.5,45.0,30.20,SSW,210,0.0,0.0,98,0.00,,,0.00,meteohub,2013-04-03 12:44:00,
2013-04-03 05:49:00,45.5,45.0,30.20,SSW,210,0.0,0.0,98,0.00,,,0.00,meteohub,2013-04-03 12:49:00,
2013-04-03 05:54:00,45.5,45.0,30.20,SSW,210,0.0,0.0,98,0.00,,,0.00,meteohub,2013-04-03 12:54:00,
2013-04-03 05:59:00,45.7,45.1,30.20,SSW,210,0.0,0.0,98,0.00,,,0.00,meteohub,2013-04-03 12:59:00,
2013-04-03 06:04:00,45.7,45.1,30.20,SSW,210,0.0,0.0,98,0.00,,,0.00,meteohub,2013-04-03 13:04:00,
2013-04-03 06:09:00,45.7,45.1,30.20,SSW,210,0.0,0.0,98,0.00,,,0.00,meteohub,2013-04-03 13:09:00,
2013-04-03 06:15:00,45.5,45.0,30.20,SSW,210,0.0,0.0,98,0.00,,,0.00,meteohub,2013-04-03 13:15:00,
2013-04-03 06:20:00,45.5,45.0,30.20,SSW,210,0.0,0.0,98,0.00,,,0.00,meteohub,2013-04-03 13:20:00,
2013-04-03 06:25:00,45.5,45.0,30.20,SSW,210,0.0,0.0,98,0.00,,,0.00,meteohub,2013-04-03 13:25:00,
2013-04-03 06:30:00,45.5,45.0,30.20,SSW,210,0.0,0.0,98,0.00,,,0.00,meteohub,2013-04-03 13:30:00,
2013-04-03 06:35:00,45.5,45.0,30.20,SSW,210,0.0,0.0,98,0.00,,,0.00,meteohub,2013-04-03 13:35:00,
2013-04-03 06:40:00,45.5,45.0,30.20,SSW,210,0.0,0.0,98,0.00,,,0.00,meteohub,2013-04-03 13:40:00,
2013-04-03 06:45:00,45.5,45.0,30.20,SSW,210,0.0,0.0,98,0.00,,,0.00,meteohub,2013-04-03 13:45:00,
2013-04-03 06:50:00,45.7,45.1,30.20,SSW,210,0.0,0.0,98,0.00,,,0.00,meteohub,2013-04-03 13:50:00,
2013-04-03 06:55:00,45.7,45.1,30.20,SSW,210,0.0,0.0,98,0.00,,,0.00,meteohub,2013-04-03 13:55:00,
2013-04-03 07:00:00,45.9,45.3,30.20,SSW,210,0.0,0.0,98,0.00,,,0.00,meteohub,2013-04-03 14:00:00,
2013-04-03 07:05:00,45.9,45.3,30.20,SSW,210,0.0,0.0,98,0.00,,,0.00,meteohub,2013-04-03 14:05:00,
2013-04-03 07:10:00,46.0,45.5,30.20,SSW,193,0.0,0.0,98,0.00,,,0.00,meteohub,2013-04-03 14:10:00,
2013-04-03 07:15:00,46.0,45.5,30.20,SSW,193,0.0,0.0,98,0.00,,,0.00,meteohub,2013-04-03 14:15:00,
2013-04-03 07:20:00,46.0,45.5,30.20,SSW,193,0.0,0.0,98,0.00,,,0.00,meteohub,2013-04-03 14:20:00,
2013-04-03 07:25:00,46.4,45.9,30.20,SSW,193,0.0,0.0,98,0.00,,,0.00,meteohub,2013-04-03 14:25:00,
2013-04-03 07:30:00,46.4,45.9,30.20,SSW,193,0.0,0.0,98,0.00,,,0.00,meteohub,2013-04-03 14:30:00,
2013-04-03 07:35:00,46.4,45.9,30.20,SSW,193,0.0,0.0,98,0.00,,,0.00,meteohub,2013-04-03 14:35:00,
2013-04-03 07:40:00,46.6,46.0,30.20,SSW,193,0.0,0.0,98,0.00,,,0.00,meteohub,2013-04-03 14:40:00,
2013-04-03 07:45:00,46.8,46.2,30.20,SSW,193,0.0,0.0,98,0.00,,,0.00,meteohub,2013-04-03 14:45:00,
2013-04-03 07:50:00,46.9,46.4,30.20,SSW,193,0.0,0.0,98,0.00,,,0.00,meteohub,2013-04-03 14:50:00,
2013-04-03 07:55:00,47.1,46.6,30.17,SSW,193,0.0,0.0,98,0.00,,,0.00,meteohub,2013-04-03 14:55:00,
2013-04-03 08:00:00,47.3,46.8,30.17,SSW,208,0.0,0.0,98,0.00,,,0.00,meteohub,2013-04-03 15:00:00,
2013-04-03 08:05:00,47.5,46.9,30.17,NNW,331,0.0,0.0,98,0.00,,,0.00,meteohub,2013-04-03 15:05:00,
2013-04-03 08:10:00,47.7,47.1,30.17,NNW,329,0.0,4.0,98,0.00,,,0.00,meteohub,2013-04-03 15:10:00,
2013-04-03 08:15:00,47.7,47.1,30.17,NW,318,4.0,6.0,98,0.00,,,0.00,meteohub,2013-04-03 15:15:00,
2013-04-03 08:20:00,47.8,47.3,30.17,NW,318,3.0,6.0,98,0.00,,,0.00,meteohub,2013-04-03 15:20:00,
2013-04-03 08:25:00,48.2,47.3,30.17,NW,323,4.0,6.0,97,0.00,,,0.00,meteohub,2013-04-03 15:25:00,
2013-04-03 08:30:00,48.4,47.5,30.17,NW,318,4.0,5.0,97,0.00,,,0.00,meteohub,2013-04-03 15:30:00,
2013-04-03 08:35:00,48.4,46.9,30.17,NNW,338,4.0,5.0,95,0.00,,,0.00,meteohub,2013-04-03 15:35:00,
2013-04-03 08:40:00,48.7,47.1,30.17,North,0,4.0,5.0,94,0.00,,,0.00,meteohub,2013-04-03 15:40:00,
2013-04-03 08:45:00,48.7,46.2,30.17,NNW,348,4.0,6.0,91,0.00,,,0.00,meteohub,2013-04-03 15:45:00,
2013-04-03 08:50:00,48.9,46.4,30.17,NNW,348,4.0,6.0,91,0.00,,,0.00,meteohub,2013-04-03 15:50:00,
2013-04-03 08:55:00,49.1,46.0,30.17,NNW,348,3.0,6.0,89,0.00,,,0.00,meteohub,2013-04-03 15:55:00,
2013-04-03 09:00:00,49.3,45.9,30.17,NNW,348,3.0,4.0,88,0.00,,,0.00,meteohub,2013-04-03 16:00:00,
2013-04-03 09:05:00,49.6,45.9,30.17,NNW,348,3.0,4.0,87,0.00,,,0.00,meteohub,2013-04-03 16:05:00,
2013-04-03 09:10:00,49.8,45.9,30.17,NNW,348,3.0,4.0,86,0.00,,,0.00,meteohub,2013-04-03 16:10:00,
2013-04-03 09:16:00,50.2,45.9,30.17,NNW,348,4.0,4.0,85,0.00,,,0.00,meteohub,2013-04-03 16:16:00,
2013-04-03 09:21:00,50.2,45.1,30.17,NNW,348,3.0,4.0,83,0.00,,,0.00,meteohub,2013-04-03 16:21:00,
2013-04-03 09:26:00,50.4,45.1,30.17,NNW,348,0.0,4.0,82,0.00,,,0.00,meteohub,2013-04-03 16:26:00,
2013-04-03 09:31:00,50.7,44.8,30.17,NNW,348,2.0,4.0,80,0.00,,,0.00,meteohub,2013-04-03 16:31:00,
2013-04-03 09:35:00,50.9,45.3,30.17,NNW,348,0.0,4.0,81,0.00,,,0.00,meteohub,2013-04-03 16:35:00,
2013-04-03 09:41:00,51.6,43.0,30.17,NNW,348,0.0,4.0,72,0.00,,,0.00,meteohub,2013-04-03 16:41:00,
2013-04-03 09:46:00,52.9,44.1,30.17,NNW,348,3.0,3.0,72,0.00,,,0.00,meteohub,2013-04-03 16:46:00,
2013-04-03 09:51:00,54.0,44.1,30.17,NNW,348,4.0,4.0,69,0.00,,,0.00,meteohub,2013-04-03 16:51:00,
2013-04-03 09:56:00,54.5,40.8,30.17,NNW,348,3.0,4.0,60,0.00,,,0.00,meteohub,2013-04-03 16:56:00,
2013-04-03 10:01:00,54.7,38.8,30.17,NNW,348,4.0,5.0,55,0.00,,,0.00,meteohub,2013-04-03 17:01:00,
2013-04-03 10:06:00,55.0,36.7,30.17,NW,321,5.0,5.0,50,0.00,,,0.00,meteohub,2013-04-03 17:06:00,
2013-04-03 10:11:00,54.9,37.0,30.17,NNW,330,4.0,5.0,51,0.00,,,0.00,meteohub,2013-04-03 17:11:00,
2013-04-03 10:16:00,55.6,36.1,30.17,North,0,4.0,5.0,48,0.00,,,0.00,meteohub,2013-04-03 17:16:00,
2013-04-03 10:21:00,56.5,36.0,30.17,North,357,4.0,5.0,46,0.00,,,0.00,meteohub,2013-04-03 17:21:00,
2013-04-03 10:26:00,57.0,36.0,30.17,North,2,3.0,5.0,45,0.00,,,0.00,meteohub,2013-04-03 17:26:00,
2013-04-03 10:31:00,57.6,34.0,30.17,North,2,4.0,5.0,41,0.00,,,0.00,meteohub,2013-04-03 17:31:00,
2013-04-03 10:37:00,57.9,33.8,30.17,NW,304,4.0,5.0,40,0.00,,,0.00,meteohub,2013-04-03 17:37:00,
2013-04-03 10:42:00,57.9,33.1,30.14,North,353,0.0,7.0,39,0.00,,,0.00,meteohub,2013-04-03 17:42:00,
2013-04-03 10:47:00,57.6,32.2,30.14,North,353,3.0,7.0,38,0.00,,,0.00,meteohub,2013-04-03 17:47:00,
2013-04-03 10:52:00,58.3,34.0,30.14,NNW,327,5.0,6.0,40,0.00,,,0.00,meteohub,2013-04-03 17:52:00,
2013-04-03 10:57:00,59.0,32.0,30.14,WNW,282,3.0,6.0,36,0.00,,,0.00,meteohub,2013-04-03 17:57:00,
2013-04-03 11:02:00,57.9,30.4,30.14,SW,230,4.0,6.0,35,0.00,,,0.00,meteohub,2013-04-03 18:02:00,
2013-04-03 11:07:00,57.9,30.4,30.17,WNW,296,0.0,6.0,35,0.00,,,0.00,meteohub,2013-04-03 18:07:00,
2013-04-03 11:12:00,56.8,31.5,30.17,ESE,118,4.0,6.0,38,0.00,,,0.00,meteohub,2013-04-03 18:12:00,
2013-04-03 11:17:00,57.7,31.6,30.17,SE,139,5.0,6.0,37,0.00,,,0.00,meteohub,2013-04-03 18:17:00,
2013-04-03 11:22:00,56.3,31.1,30.14,East,99,4.0,6.0,38,0.00,,,0.00,meteohub,2013-04-03 18:22:00,
2013-04-03 11:28:00,57.2,31.8,30.14,SE,127,4.0,5.0,38,0.00,,,0.00,meteohub,2013-04-03 18:28:00,
2013-04-03 11:33:00,56.5,31.8,30.14,SE,130,5.0,6.0,39,0.00,,,0.00,meteohub,2013-04-03 18:33:00,
2013-04-03 11:38:00,58.1,32.0,30.17,East,94,4.0,6.0,37,0.00,,,0.00,meteohub,2013-04-03 18:38:00,
2013-04-03 11:43:00,59.5,31.1,30.17,ESE,122,3.0,6.0,34,0.00,,,0.00,meteohub,2013-04-03 18:43:00,
2013-04-03 11:48:00,60.4,32.0,30.17,ESE,104,3.0,6.0,34,0.00,,,0.00,meteohub,2013-04-03 18:48:00,
2013-04-03 11:53:00,61.2,29.5,30.17,SE,125,4.0,4.0,30,0.00,,,0.00,meteohub,2013-04-03 18:53:00,
2013-04-03 11:58:00,60.4,28.9,30.17,SE,125,3.0,4.0,30,0.00,,,0.00,meteohub,2013-04-03 18:58:00,
2013-04-03 12:03:00,59.7,28.9,30.17,SE,126,4.0,4.0,31,0.00,,,0.00,meteohub,2013-04-03 19:03:00,
2013-04-03 12:08:00,59.4,28.8,30.17,SE,129,5.0,5.0,31,0.00,,,0.00,meteohub,2013-04-03 19:08:00,
2013-04-03 12:13:00,58.5,30.2,30.17,SE,134,5.0,5.0,34,0.00,,,0.00,meteohub,2013-04-03 19:13:00,
2013-04-03 12:19:00,59.2,30.7,30.17,SE,133,4.0,5.0,34,0.00,,,0.00,meteohub,2013-04-03 19:19:00,
2013-04-03 12:24:00,58.8,29.8,30.14,SE,134,4.0,5.0,33,0.00,,,0.00,meteohub,2013-04-03 19:24:00,
2013-04-03 12:29:00,59.0,30.7,30.14,SE,128,4.0,5.0,34,0.00,,,0.00,meteohub,2013-04-03 19:29:00,
2013-04-03 12:34:00,58.6,30.4,30.14,SE,129,5.0,5.0,34,0.00,,,0.00,meteohub,2013-04-03 19:34:00,
2013-04-03 12:39:00,59.0,30.7,30.14,SE,130,4.0,5.0,34,0.00,,,0.00,meteohub,2013-04-03 19:39:00,
2013-04-03 12:44:00,58.6,30.4,30.14,SE,130,4.0,5.0,34,0.00,,,0.00,meteohub,2013-04-03 19:44:00,
2013-04-03 12:49:00,59.7,29.8,30.14,SE,129,4.0,5.0,32,0.00,,,0.00,meteohub,2013-04-03 19:49:00,
2013-04-03 12:54:00,60.3,30.2,30.14,SE,135,5.0,5.0,32,0.00,,,0.00,meteohub,2013-04-03 19:54:00,
2013-04-03 12:59:00,59.7,28.2,30.14,ESE,103,5.0,5.0,30,0.00,,,0.00,meteohub,2013-04-03 19:59:00,
2013-04-03 13:04:00,58.6,28.9,30.14,ESE,120,4.0,6.0,32,0.00,,,0.00,meteohub,2013-04-03 20:04:00,
2013-04-03 13:09:00,58.5,30.2,30.14,ESE,103,3.0,6.0,34,0.00,,,0.00,meteohub,2013-04-03 20:09:00,
2013-04-03 13:14:00,57.6,30.0,30.14,SSE,152,2.0,6.0,35,0.00,,,0.00,meteohub,2013-04-03 20:14:00,
2013-04-03 13:19:00,57.2,30.6,30.14,SE,130,3.0,6.0,36,0.00,,,0.00,meteohub,2013-04-03 20:19:00,
2013-04-03 13:24:00,57.9,30.4,30.14,ESE,122,3.0,6.0,35,0.00,,,0.00,meteohub,2013-04-03 20:24:00,
2013-04-03 13:29:00,58.1,29.8,30.14,SE,131,6.0,6.0,34,0.00,,,0.00,meteohub,2013-04-03 20:29:00,
2013-04-03 13:34:00,59.0,27.7,30.14,SE,127,6.0,6.0,30,0.00,,,0.00,meteohub,2013-04-03 20:34:00,
2013-04-03 13:39:00,59.2,27.7,30.14,SE,132,4.0,6.0,30,0.00,,,0.00,meteohub,2013-04-03 20:39:00,
2013-04-03 13:45:00,59.5,28.0,30.14,ESE,117,4.0,6.0,30,0.00,,,0.00,meteohub,2013-04-03 20:45:00,
2013-04-03 13:50:00,59.9,27.5,30.14,SE,133,4.0,6.0,29,0.00,,,0.00,meteohub,2013-04-03 20:50:00,
2013-04-03 13:55:00,60.3,27.0,30.14,SE,124,4.0,5.0,28,0.00,,,0.00,meteohub,2013-04-03 20:55:00,
2013-04-03 14:00:00,60.3,26.1,30.14,SE,129,6.0,6.0,27,0.00,,,0.00,meteohub,2013-04-03 21:00:00,
2013-04-03 14:05:00,60.4,27.1,30.14,SE,128,3.0,6.0,28,0.00,,,0.00,meteohub,2013-04-03 21:05:00,
2013-04-03 14:10:00,60.8,26.6,30.14,SE,131,5.0,6.0,27,0.00,,,0.00,meteohub,2013-04-03 21:10:00,
2013-04-03 14:15:00,60.6,25.5,30.14,SE,129,5.0,6.0,26,0.00,,,0.00,meteohub,2013-04-03 21:15:00,
2013-04-03 14:20:00,60.4,25.3,30.14,SE,128,8.0,8.0,26,0.00,,,0.00,meteohub,2013-04-03 21:20:00,
2013-04-03 14:25:00,60.6,25.5,30.14,SE,127,3.0,8.0,26,0.00,,,0.00,meteohub,2013-04-03 21:25:00,
2013-04-03 14:30:00,59.4,24.4,30.14,ESE,120,4.0,8.0,26,0.00,,,0.00,meteohub,2013-04-03 21:30:00,
2013-04-03 14:35:00,59.2,25.2,30.14,ESE,119,4.0,8.0,27,0.00,,,0.00,meteohub,2013-04-03 21:35:00,
2013-04-03 14:40:00,59.7,25.7,30.11,ESE,120,5.0,6.0,27,0.00,,,0.00,meteohub,2013-04-03 21:40:00,
2013-04-03 14:45:00,59.9,25.9,30.11,SE,130,6.0,7.0,27,0.00,,,0.00,meteohub,2013-04-03 21:45:00,
2013-04-03 14:50:00,60.3,26.1,30.11,SE,124,4.0,8.0,27,0.00,,,0.00,meteohub,2013-04-03 21:50:00,
2013-04-03 14:55:00,59.7,25.7,30.11,SE,131,8.0,8.0,27,0.00,,,0.00,meteohub,2013-04-03 21:55:00,
2013-04-03 15:00:00,59.5,26.4,30.11,SE,135,6.0,8.0,28,0.00,,,0.00,meteohub,2013-04-03 22:00:00,
2013-04-03 15:05:00,59.4,25.3,30.11,SE,125,4.0,8.0,27,0.00,,,0.00,meteohub,2013-04-03 22:05:00,
2013-04-03 15:10:00,59.7,25.7,30.11,ESE,123,4.0,8.0,27,0.00,,,0.00,meteohub,2013-04-03 22:10:00,
2013-04-03 15:15:00,59.7,25.7,30.11,SE,132,6.0,7.0,27,0.00,,,0.00,meteohub,2013-04-03 22:15:00,
2013-04-03 15:20:00,59.2,24.3,30.11,SE,146,6.0,7.0,26,0.00,,,0.00,meteohub,2013-04-03 22:20:00,
2013-04-03 15:25:00,59.2,24.3,30.11,SE,134,3.0,7.0,26,0.00,,,0.00,meteohub,2013-04-03 22:25:00,
2013-04-03 15:30:00,59.4,25.3,30.11,SE,134,2.0,7.0,27,0.00,,,0.00,meteohub,2013-04-03 22:30:00,
2013-04-03 15:35:00,59.4,24.4,30.11,SE,136,4.0,6.0,26,0.00,,,0.00,meteohub,2013-04-03 22:35:00,
2013-04-03 15:40:00,59.4,24.4,30.11,East,86,3.0,5.0,26,0.00,,,0.00,meteohub,2013-04-03 22:40:00,
2013-04-03 15:45:00,59.4,24.4,30.11,East,86,2.0,5.0,26,0.00,,,0.00,meteohub,2013-04-03 22:45:00,
2013-04-03 15:50:00,59.9,25.0,30.11,East,86,0.0,4.0,26,0.00,,,0.00,meteohub,2013-04-03 22:50:00,
2013-04-03 15:55:00,59.9,25.0,30.08,East,86,0.0,4.0,26,0.00,,,0.00,meteohub,2013-04-03 22:55:00,
2013-04-03 16:00:00,60.1,25.2,30.08,East,96,3.0,3.0,26,0.00,,,0.00,meteohub,2013-04-03 23:00:00,
2013-04-03 16:05:00,59.5,24.6,30.08,SE,125,3.0,4.0,26,0.00,,,0.00,meteohub,2013-04-03 23:05:00,
2013-04-03 16:10:00,58.8,24.1,30.08,SSE,150,4.0,4.0,26,0.00,,,0.00,meteohub,2013-04-03 23:10:00,
2013-04-03 16:15:00,59.2,24.3,30.08,ESE,123,3.0,5.0,26,0.00,,,0.00,meteohub,2013-04-03 23:15:00,
2013-04-03 16:20:00,59.4,24.4,30.08,ESE,118,3.0,5.0,26,0.00,,,0.00,meteohub,2013-04-03 23:20:00,
2013-04-03 16:25:00,59.5,24.6,30.08,ESE,118,4.0,5.0,26,0.00,,,0.00,meteohub,2013-04-03 23:25:00,
2013-04-03 16:30:00,59.2,24.3,30.08,SE,142,0.0,4.0,26,0.00,,,0.00,meteohub,2013-04-03 23:30:00,
2013-04-03 16:35:00,59.2,24.3,30.08,SE,146,3.0,4.0,26,0.00,,,0.00,meteohub,2013-04-03 23:35:00,
2013-04-03 16:40:00,59.5,24.6,30.08,SE,146,2.0,4.0,26,0.00,,,0.00,meteohub,2013-04-03 23:40:00,
2013-04-03 16:45:00,59.7,24.8,30.08,SE,146,0.0,4.0,26,0.00,,,0.00,meteohub,2013-04-03 23:45:00,
2013-04-03 16:50:00,59.7,24.8,30.08,SE,146,0.0,4.0,26,0.00,,,0.00,meteohub,2013-04-03 23:50:00,
2013-04-03 16:56:00,60.1,25.2,30.08,SE,146,0.0,3.0,26,0.00,,,0.00,meteohub,2013-04-03 23:56:00,
2013-04-03 17:00:00,60.1,25.2,30.08,SE,146,0.0,0.0,26,0.00,,,0.00,meteohub,2013-04-04 00:00:00,
2013-04-03 17:06:00,60.1,25.2,30.08,SE,146,0.0,0.0,26,0.00,,,0.00,meteohub,2013-04-04 00:06:00,
2013-04-03 17:11:00,59.9,25.0,30.08,SE,146,0.0,0.0,26,0.00,,,0.00,meteohub,2013-04-04 00:11:00,
2013-04-03 17:16:00,60.1,25.2,30.08,SE,146,0.0,0.0,26,0.00,,,0.00,meteohub,2013-04-04 00:16:00,
2013-04-03 17:21:00,60.3,25.2,30.08,SE,146,0.0,0.0,26,0.00,,,0.00,meteohub,2013-04-04 00:21:00,
2013-04-03 17:26:00,60.4,26.2,30.08,ENE,62,0.0,0.0,27,0.00,,,0.00,meteohub,2013-04-04 00:26:00,
2013-04-03 17:31:00,60.4,26.2,30.08,NE,43,0.0,0.0,27,0.00,,,0.00,meteohub,2013-04-04 00:31:00,
2013-04-03 17:36:00,60.3,26.1,30.08,NE,43,0.0,0.0,27,0.00,,,0.00,meteohub,2013-04-04 00:36:00,
2013-04-03 17:41:00,60.1,26.1,30.08,North,357,4.0,4.0,27,0.00,,,0.00,meteohub,2013-04-04 00:41:00,
2013-04-03 17:47:00,59.9,25.9,30.08,NNW,337,3.0,4.0,27,0.00,,,0.00,meteohub,2013-04-04 00:47:00,
2013-04-03 17:52:00,59.7,25.7,30.05,NNW,337,0.0,4.0,27,0.00,,,0.00,meteohub,2013-04-04 00:52:00,
2013-04-03 17:57:00,59.7,26.6,30.05,North,353,4.0,4.0,28,0.00,,,0.00,meteohub,2013-04-04 00:57:00,
2013-04-03 18:02:00,59.5,26.4,30.05,NNW,337,4.0,5.0,28,0.00,,,0.00,meteohub,2013-04-04 01:02:00,
2013-04-03 18:07:00,59.4,26.2,30.05,North,350,4.0,6.0,28,0.00,,,0.00,meteohub,2013-04-04 01:07:00,
2013-04-03 18:12:00,59.4,26.2,30.05,North,353,5.0,6.0,28,0.00,,,0.00,meteohub,2013-04-04 01:12:00,
2013-04-03 18:17:00,59.2,26.1,30.05,North,0,5.0,6.0,28,0.00,,,0.00,meteohub,2013-04-04 01:17:00,
2013-04-03 18:22:00,59.2,26.1,30.05,North,353,4.0,6.0,28,0.00,,,0.00,meteohub,2013-04-04 01:22:00,
2013-04-03 18:27:00,59.0,25.9,30.05,North,0,3.0,7.0,28,0.00,,,0.00,meteohub,2013-04-04 01:27:00,
2013-04-03 18:32:00,59.0,27.7,30.05,North,0,3.0,7.0,30,0.00,,,0.00,meteohub,2013-04-04 01:32:00,
2013-04-03 18:37:00,58.8,29.8,30.05,SW,224,3.0,7.0,33,0.00,,,0.00,meteohub,2013-04-04 01:37:00,
2013-04-03 18:42:00,58.5,30.9,30.05,SSW,208,0.0,5.0,35,0.00,,,0.00,meteohub,2013-04-04 01:42:00,
2013-04-03 18:47:00,58.3,31.5,30.05,North,350,0.0,4.0,36,0.00,,,0.00,meteohub,2013-04-04 01:47:00,
2013-04-03 18:52:00,58.3,30.7,30.02,North,350,0.0,3.0,35,0.00,,,0.00,meteohub,2013-04-04 01:52:00,
2013-04-03 18:57:00,58.1,30.6,30.02,North,353,4.0,4.0,35,0.00,,,0.00,meteohub,2013-04-04 01:57:00,
2013-04-03 19:02:00,57.9,31.1,30.02,North,353,3.0,4.0,36,0.00,,,0.00,meteohub,2013-04-04 02:02:00,
2013-04-03 19:07:00,57.6,30.7,30.02,North,353,0.0,4.0,36,0.00,,,0.00,meteohub,2013-04-04 02:07:00,
2013-04-03 19:12:00,57.6,30.7,30.02,North,353,3.0,4.0,36,0.00,,,0.00,meteohub,2013-04-04 02:12:00,
2013-04-03 19:17:00,57.4,30.6,30.02,North,353,0.0,4.0,36,0.00,,,0.00,meteohub,2013-04-04 02:17:00,
2013-04-03 19:22:00,57.2,30.6,30.02,North,353,0.0,4.0,36,0.00,,,0.00,meteohub,2013-04-04 02:22:00,
2013-04-03 19:27:00,56.8,30.9,30.02,North,353,0.0,4.0,37,0.00,,,0.00,meteohub,2013-04-04 02:27:00,
2013-04-03 19:32:00,56.7,32.0,30.02,North,353,0.0,3.0,39,0.00,,,0.00,meteohub,2013-04-04 02:32:00,
2013-04-03 19:37:00,56.3,31.6,30.02,North,353,0.0,3.0,39,0.00,,,0.00,meteohub,2013-04-04 02:37:00,
2013-04-03 19:42:00,56.3,31.6,30.02,North,353,4.0,4.0,39,0.00,,,0.00,meteohub,2013-04-04 02:42:00,
2013-04-03 19:47:00,56.3,32.9,30.02,North,353,3.0,4.0,41,0.00,,,0.00,meteohub,2013-04-04 02:47:00,
2013-04-03 19:52:00,55.6,32.2,29.99,North,353,0.0,4.0,41,0.00,,,0.00,meteohub,2013-04-04 02:52:00,
2013-04-03 19:57:00,55.2,33.1,29.99,North,353,0.0,4.0,43,0.00,,,0.00,meteohub,2013-04-04 02:57:00,
2013-04-03 20:02:00,55.0,32.9,29.99,North,353,0.0,4.0,43,0.00,,,0.00,meteohub,2013-04-04 03:02:00,
2013-04-03 20:07:00,54.9,32.7,29.99,North,353,4.0,4.0,43,0.00,,,0.00,meteohub,2013-04-04 03:07:00,
2013-04-03 20:12:00,54.5,34.2,29.99,North,353,2.0,4.0,46,0.00,,,0.00,meteohub,2013-04-04 03:12:00,
2013-04-03 20:17:00,54.0,34.7,29.99,North,0,8.0,8.0,48,0.00,,,0.00,meteohub,2013-04-04 03:17:00,
2013-04-03 20:22:00,54.1,33.8,30.02,North,357,4.0,8.0,46,0.00,,,0.00,meteohub,2013-04-04 03:22:00,
2013-04-03 20:28:00,54.0,35.2,30.02,North,0,4.0,8.0,49,0.00,,,0.00,meteohub,2013-04-04 03:28:00,
2013-04-03 20:33:00,53.8,36.1,30.02,NNW,343,4.0,8.0,51,0.00,,,0.00,meteohub,2013-04-04 03:33:00,
2013-04-03 20:38:00,53.6,36.3,30.02,North,353,4.0,8.0,52,0.00,,,0.00,meteohub,2013-04-04 03:38:00,
2013-04-03 20:43:00,53.4,36.3,30.02,NNW,341,3.0,6.0,52,0.00,,,0.00,meteohub,2013-04-04 03:43:00,
2013-04-03 20:48:00,53.2,35.6,30.02,North,353,5.0,6.0,51,0.00,,,0.00,meteohub,2013-04-04 03:48:00,
2013-04-03 20:53:00,53.2,35.1,29.99,NNW,343,4.0,6.0,50,0.00,,,0.00,meteohub,2013-04-04 03:53:00,
2013-04-03 20:58:00,53.1,35.4,29.99,WNW,300,4.0,8.0,51,0.00,,,0.00,meteohub,2013-04-04 03:58:00,
2013-04-03 21:00:00,53.1,35.4,29.99,WNW,291,4.0,8.0,51,0.00,,,0.00,meteohub,2013-04-04 04:00:00,
2013-04-03 21:05:00,53.1,36.3,29.99,NW,318,3.0,6.0,53,0.00,,,0.00,meteohub,2013-04-04 04:05:00,
2013-04-03 21:10:00,52.9,36.1,30.02,NW,318,0.0,5.0,53,0.00,,,0.00,meteohub,2013-04-04 04:10:00,
2013-04-03 21:15:00,52.9,35.2,30.02,NNW,335,4.0,5.0,51,0.00,,,0.00,meteohub,2013-04-04 04:15:00,
2013-04-03 21:20:00,53.1,34.3,30.02,NNW,332,4.0,6.0,49,0.00,,,0.00,meteohub,2013-04-04 04:20:00,
2013-04-03 21:25:00,53.1,33.8,30.02,NNW,332,2.0,6.0,48,0.00,,,0.00,meteohub,2013-04-04 04:25:00,
2013-04-03 21:30:00,52.9,34.7,30.02,NNW,332,0.0,6.0,50,0.00,,,0.00,meteohub,2013-04-04 04:30:00,
2013-04-03 21:35:00,52.7,34.5,30.02,NNW,332,0.0,5.0,50,0.00,,,0.00,meteohub,2013-04-04 04:35:00,
2013-04-03 21:40:00,52.5,36.9,29.99,NNW,332,0.0,4.0,55,0.00,,,0.00,meteohub,2013-04-04 04:40:00,
2013-04-03 21:45:00,52.3,36.1,29.99,NNW,332,0.0,0.0,54,0.00,,,0.00,meteohub,2013-04-04 04:45:00,
2013-04-03 21:50:00,52.2,36.0,29.99,NNW,332,0.0,0.0,54,0.00,,,0.00,meteohub,2013-04-04 04:50:00,
2013-04-03 21:55:00,52.0,36.3,29.99,NNW,332,0.0,0.0,55,0.00,,,0.00,meteohub,2013-04-04 04:55:00,
2013-04-03 22:00:00,51.6,36.0,29.99,NNW,332,0.0,0.0,55,0.00,,,0.00,meteohub,2013-04-04 05:00:00,
2013-04-03 22:05:00,51.4,36.3,29.99,NNW,332,3.0,0.0,56,0.00,,,0.00,meteohub,2013-04-04 05:05:00,
2013-04-03 22:10:00,51.3,36.5,29.99,NNW,332,0.0,4.0,57,0.00,,,0.00,meteohub,2013-04-04 05:10:00,
2013-04-03 22:15:00,51.1,37.8,29.99,NNW,332,0.0,4.0,60,0.00,,,0.00,meteohub,2013-04-04 05:15:00,
2013-04-03 22:20:00,50.9,37.0,29.99,NW,314,3.0,4.0,59,0.00,,,0.00,meteohub,2013-04-04 05:20:00,
2013-04-03 22:25:00,50.7,37.8,29.99,NW,314,3.0,5.0,61,0.00,,,0.00,meteohub,2013-04-04 05:25:00,
2013-04-03 22:30:00,50.7,38.1,29.99,NW,315,3.0,5.0,62,0.00,,,0.00,meteohub,2013-04-04 05:30:00,
2013-04-03 22:35:00,50.5,38.5,29.99,WNW,301,5.0,5.0,63,0.00,,,0.00,meteohub,2013-04-04 05:35:00,
2013-04-03 22:40:00,50.5,38.5,29.99,WNW,298,2.0,5.0,63,0.00,,,0.00,meteohub,2013-04-04 05:40:00,
2013-04-03 22:45:00,50.5,37.6,29.99,WNW,298,3.0,5.0,61,0.00,,,0.00,meteohub,2013-04-04 05:45:00,
2013-04-03 22:50:00,50.5,37.9,29.99,WNW,298,3.0,5.0,62,0.00,,,0.00,meteohub,2013-04-04 05:50:00,
2013-04-03 22:55:00,50.5,38.5,29.99,WNW,298,4.0,4.0,63,0.00,,,0.00,meteohub,2013-04-04 05:55:00,
2013-04-03 23:00:00,50.7,38.7,29.99,NNW,333,3.0,4.0,63,0.00,,,0.00,meteohub,2013-04-04 06:00:00,
2013-04-03 23:05:00,50.7,38.1,29.99,NW,324,0.0,5.0,62,0.00,,,0.00,meteohub,2013-04-04 06:05:00,
2013-04-03 23:10:00,50.5,37.6,29.99,NW,324,0.0,5.0,61,0.00,,,0.00,meteohub,2013-04-04 06:10:00,
2013-04-03 23:15:00,50.4,37.8,29.99,NW,324,0.0,5.0,62,0.00,,,0.00,meteohub,2013-04-04 06:15:00,
2013-04-03 23:20:00,50.4,37.8,29.99,NW,324,0.0,0.0,62,0.00,,,0.00,meteohub,2013-04-04 06:20:00,
2013-04-03 23:25:00,50.2,38.5,29.99,NW,324,0.0,0.0,64,0.00,,,0.00,meteohub,2013-04-04 06:25:00,
2013-04-03 23:30:00,50.0,37.9,29.99,NW,324,0.0,0.0,63,0.00,,,0.00,meteohub,2013-04-04 06:30:00,
2013-04-03 23:35:00,50.0,37.9,29.99,NW,324,0.0,0.0,63,0.00,,,0.00,meteohub,2013-04-04 06:35:00,
2013-04-03 23:40:00,50.0,39.0,29.99,NW,324,0.0,0.0,66,0.00,,,0.00,meteohub,2013-04-04 06:40:00,
2013-04-03 23:45:00,49.8,39.4,29.99,NW,324,3.0,0.0,67,0.00,,,0.00,meteohub,2013-04-04 06:45:00,
2013-04-03 23:50:00,50.0,39.6,29.99,NNW,345,3.0,5.0,67,0.00,,,0.00,meteohub,2013-04-04 06:50:00,
2013-04-03 23:56:00,50.0,39.6,29.96,WNW,288,3.0,5.0,67,0.00,,,0.00,meteohub,2013-04-04 06:56:00,